Главная страница
METAR-TAF:

METAR-TAF

Аэропорты :

Кривой Рог, Украина

широта: 48-03N, долгота: 033-13-12E, высота над уровнем моря: 124 м

Текущие метеонаблюдения

Эта сводка был подготовлена 42 минут назад, в 02:00 UTC
Ветер 4 Узел от северный
Температура 16°C
Влажность 77%
Давление 1017 hPa
Видимость 10 км и более
Нет облачности ниже 1500 м, и нет кучево-дождевой облачности

METAR: UKDR 210200Z 36002MPS CAVOK 16/12 Q1017 R36/09//70 NOSIG

Время: 05:42 (02:42 UTC)

Прогноз

Эта сводка был подготовлена 3 часа и 40 минут назад, в 23:02 UTC
Прогноз действительный с 21-го 00 UTC до 21-го 24 UTC
Ветер 2 Узел переменных направлений
Видимость 10 км и более
Нет облачности ниже 1500 м, и нет кучево-дождевой облачности

TAF: UKDR 202302Z 2100/2124 VRB01MPS CAVOK TX30/2112Z TN17/2102Z

Метеонаблюдения и прогнозы для более 4000 аэропортов (сводки METAR и TAF).

Имеющиеся станции представлены на карте желтыми и красными точками.

Чтобы увидеть название станции, наведите на нее мышь.

Затем щелкните, чтобы увидеть метеонаблюдения и метеопрогнозы.

Управление картой: чтобы увеличить масштаб, щелкните зеленые кнопки с черным крестиком; чтобы уменьшить масштаб, щелкните зеленую кнопку с тире; для просмотра соседних карт щелкайте зеленые стрелки.


METAR-TAF: